Time;durP1;ratioP1;P1;durP2;ratioP2;P2;SDS_P1;SDS_P2;PMS_P1;PMS_P2;Temp;Humidity;BMP_temperature;BMP_pressure;BME280_temperature;BME280_humidity;BME280_pressure;Samples;Min_cycle;Max_cycle;Signal;HPM_P1;HPM_P2
2021/06/16 00:00:18;;;;;;;2.17;1.33;;;;;;;29.27;35.35;100934.06;5056783;28;20028;-72
2021/06/16 00:02:43;;;;;;;1.92;1.42;;;;;;;29.44;35.05;100934.06;5074153;28;20024;-72
2021/06/16 00:05:18;;;;;;;2.25;1.30;;;;;;;29.22;35.65;100937.38;5074415;28;20078;-72
2021/06/16 00:07:43;;;;;;;1.95;1.30;;;;;;;29.27;35.56;100933.28;5074709;28;20087;-73
2021/06/16 00:10:10;;;;;;;1.40;1.23;;;;;;;29.33;35.26;100919.47;5074541;28;20024;-72
2021/06/16 00:12:37;;;;;;;2.05;1.40;;;;;;;28.77;36.67;100927.91;5074374;28;20032;-72
2021/06/16 00:15:11;;;;;;;2.33;1.63;;;;;;;29.19;35.72;100924.19;5074526;28;20024;-72
2021/06/16 00:17:37;;;;;;;2.47;1.10;;;;;;;29.02;35.98;100922.59;5074366;28;20024;-72
2021/06/16 00:20:04;;;;;;;1.92;1.58;;;;;;;29.02;36.02;100912.13;5074662;28;20075;-72
2021/06/16 00:22:30;;;;;;;1.75;1.30;;;;;;;28.88;36.31;100914.44;5056308;28;20025;-72
2021/06/16 00:24:56;;;;;;;2.08;1.35;;;;;;;29.04;35.82;100908.88;5074356;28;20540;-72
2021/06/16 00:27:21;;;;;;;3.70;1.58;;;;;;;29.17;35.85;100900.53;5074269;28;20486;-72
2021/06/16 00:29:47;;;;;;;1.83;1.08;;;;;;;29.01;36.13;100893.63;5074237;28;20021;-72
2021/06/16 00:32:13;;;;;;;1.80;1.35;;;;;;;29.12;35.81;100884.97;5074101;28;20059;-72
2021/06/16 00:34:39;;;;;;;1.48;1.08;;;;;;;29.15;35.58;100894.56;5074133;28;20101;-73
2021/06/16 00:37:04;;;;;;;1.25;1.15;;;;;;;29.26;35.54;100895.09;5074055;28;20501;-72
2021/06/16 00:39:30;;;;;;;2.35;1.65;;;;;;;28.99;35.98;100884.84;5074000;28;20162;-72
2021/06/16 00:41:56;;;;;;;1.30;1.20;;;;;;;29.08;35.99;100889.88;5073991;28;20073;-72
2021/06/16 00:44:22;;;;;;;2.30;1.60;;;;;;;29.16;35.62;100891.28;5073904;28;20510;-72
2021/06/16 00:46:47;;;;;;;1.45;1.35;;;;;;;29.03;35.77;100881.97;5074107;28;20048;-73
2021/06/16 00:49:13;;;;;;;3.65;1.42;;;;;;;29.24;35.36;100889.91;5073847;28;20020;-72
2021/06/16 00:51:39;;;;;;;1.67;1.13;;;;;;;29.08;35.83;100881.44;5055820;28;20467;-72
2021/06/16 00:54:10;;;;;;;2.03;1.42;;;;;;;29.08;35.96;100875.03;5071390;28;20506;-72
2021/06/16 00:56:38;;;;;;;1.83;1.42;;;;;;;28.98;36.06;100876.84;5073482;28;20036;-72
2021/06/16 00:59:04;;;;;;;3.72;1.50;;;;;;;29.12;35.85;100865.28;5072354;28;20028;-72
2021/06/16 01:01:29;;;;;;;2.28;1.20;;;;;;;29.18;35.61;100868.38;5073549;28;20051;-73
2021/06/16 01:04:04;;;;;;;5.82;1.70;;;;;;;29.14;35.85;100864.84;5073576;28;20031;-72
2021/06/16 01:06:33;;;;;;;1.85;1.30;;;;;;;29.25;35.52;100862.56;5073547;28;20108;-73
2021/06/16 01:09:11;;;;;;;1.80;1.30;;;;;;;28.83;36.52;100859.47;5073467;28;20387;-73
2021/06/16 01:12:04;;;;;;;2.53;1.15;;;;;;;28.81;36.65;100863.97;5071983;28;20048;-72
2021/06/16 01:14:43;;;;;;;1.90;1.33;;;;;;;28.98;36.18;100854.34;5061619;28;20048;-73
2021/06/16 01:17:10;;;;;;;1.80;1.27;;;;;;;29.04;36.01;100844.19;5072039;28;20021;-72
2021/06/16 01:19:51;;;;;;;1.25;1.00;;;;;;;29.17;35.78;100853.50;5073241;28;20017;-72
2021/06/16 01:22:37;;;;;;;7.15;1.58;;;;;;;29.02;36.03;100850.25;5073294;28;20425;-72
2021/06/16 01:25:15;;;;;;;1.75;1.35;;;;;;;29.25;35.75;100840.84;5073212;28;20021;-72
2021/06/16 01:27:42;;;;;;;3.17;1.50;;;;;;;29.15;35.90;100841.88;5073081;28;20024;-72
2021/06/16 01:30:08;;;;;;;3.13;1.55;;;;;;;29.11;36.21;100851.66;5073058;28;20021;-72
2021/06/16 01:32:35;;;;;;;1.90;1.48;;;;;;;28.43;37.44;100864.38;5073048;28;20028;-72
2021/06/16 01:35:01;;;;;;;1.00;0.70;;;;;;;28.68;36.66;100875.06;5072985;28;20051;-72
2021/06/16 01:37:27;;;;;;;1.27;0.40;;;;;;;28.29;37.48;100878.66;5072961;28;20028;-72
2021/06/16 01:39:54;;;;;;;1.63;0.73;;;;;;;28.33;37.51;100876.59;5072877;28;20053;-72
2021/06/16 01:42:22;;;;;;;0.38;0.20;;;;;;;28.10;37.66;100880.22;5072804;28;20070;-73
2021/06/16 01:44:52;;;;;;;0.47;0.28;;;;;;;28.09;37.77;100887.84;5072820;28;20025;-71
2021/06/16 01:47:20;;;;;;;0.30;0.30;;;;;;;28.18;37.48;100878.84;5072827;28;20479;-72
2021/06/16 01:49:48;;;;;;;0.70;0.32;;;;;;;28.04;37.69;100874.31;5072769;28;20029;-72
2021/06/16 01:52:17;;;;;;;1.05;0.40;;;;;;;27.95;38.04;100873.28;5072305;28;20074;-73
2021/06/16 01:54:43;;;;;;;0.13;0.13;;;;;;;27.93;38.09;100876.53;5072706;28;20060;-74
2021/06/16 01:57:10;;;;;;;0.93;0.28;;;;;;;28.01;38.04;100865.94;5072441;28;20052;-72
2021/06/16 01:59:40;;;;;;;0.10;0.10;;;;;;;27.98;37.94;100867.59;5072502;28;20021;-72
2021/06/16 02:02:06;;;;;;;;;;;;;;;28.00;37.88;100875.59;5072965;28;20535;-72
2021/06/16 02:04:33;;;;;;;0.35;0.35;;;;;;;28.04;37.74;100882.75;5072870;28;20008;-72
2021/06/16 02:07:07;;;;;;;0.65;0.65;;;;;;;27.83;38.43;100881.13;5072468;28;20479;-72
2021/06/16 02:09:34;;;;;;;0.50;0.50;;;;;;;27.92;37.85;100886.16;5054618;28;20017;-72
2021/06/16 02:12:00;;;;;;;0.50;0.40;;;;;;;27.92;37.92;100884.16;5072402;28;20025;-72
2021/06/16 02:14:28;;;;;;;0.88;0.40;;;;;;;27.78;38.28;100897.66;5054507;28;20028;-72
2021/06/16 02:17:00;;;;;;;3.60;0.75;;;;;;;27.73;38.45;100901.72;5072470;28;20448;-72
2021/06/16 02:19:32;;;;;;;0.20;0.20;;;;;;;27.74;38.51;100896.94;5072454;28;20090;-72
2021/06/16 02:21:59;;;;;;;0.20;0.20;;;;;;;27.54;38.48;100888.41;5072295;28;20028;-72
2021/06/16 02:24:25;;;;;;;0.20;0.20;;;;;;;27.53;38.08;100896.03;5072278;28;20229;-72
2021/06/16 02:26:51;;;;;;;0.73;0.20;;;;;;;27.40;38.20;100889.41;5075178;28;20104;-73
2021/06/16 02:29:18;;;;;;;0.30;0.20;;;;;;;27.35;37.88;100899.09;5076550;28;20423;-73
2021/06/16 02:31:44;;;;;;;0.85;0.30;;;;;;;27.25;37.72;100894.44;5076434;28;20101;-72
2021/06/16 02:34:10;;;;;;;0.95;0.40;;;;;;;27.17;38.00;100887.38;5076460;28;20494;-73
2021/06/16 02:36:45;;;;;;;0.70;0.40;;;;;;;27.00;38.17;100892.00;5058341;28;20051;-72
2021/06/16 02:39:18;;;;;;;0.40;0.40;;;;;;;26.71;38.42;100893.59;5076329;28;20032;-72
2021/06/16 02:41:46;;;;;;;0.20;0.20;;;;;;;26.86;37.99;100885.78;5076270;28;20063;-73
2021/06/16 02:44:13;;;;;;;2.22;0.77;;;;;;;26.62;38.04;100885.69;5075826;28;20027;-73
2021/06/16 02:46:42;;;;;;;1.30;0.60;;;;;;;26.64;37.79;100891.66;5058108;28;20394;-73
2021/06/16 02:49:08;;;;;;;2.17;0.65;;;;;;;26.32;38.86;100894.81;5076099;28;20158;-74
2021/06/16 02:51:39;;;;;;;1.67;0.88;;;;;;;26.36;38.46;100891.97;5076050;28;20544;-72
2021/06/16 02:54:09;;;;;;;5.00;0.93;;;;;;;26.16;38.52;100887.00;5073832;28;20553;-73
2021/06/16 02:56:43;;;;;;;1.13;0.50;;;;;;;26.14;38.99;100889.38;5076031;28;20360;-72
2021/06/16 02:59:11;;;;;;;2.85;0.80;;;;;;;26.24;38.15;100879.31;5075982;28;20123;-73
2021/06/16 03:01:37;;;;;;;1.60;0.75;;;;;;;26.28;38.33;100883.63;5075908;28;20475;-72
2021/06/16 03:04:05;;;;;;;1.33;0.70;;;;;;;26.03;38.84;100882.31;5075882;28;20052;-72
2021/06/16 03:06:32;;;;;;;2.80;1.15;;;;;;;25.80;39.00;100880.94;5076043;28;20399;-72
2021/06/16 03:08:58;;;;;;;2.67;0.70;;;;;;;25.84;39.08;100881.69;5075746;28;20021;-72
2021/06/16 03:11:25;;;;;;;1.52;1.00;;;;;;;25.87;39.05;100869.69;5075662;28;20479;-72
2021/06/16 03:13:52;;;;;;;0.60;0.60;;;;;;;25.68;39.14;100873.81;5075701;28;20016;-72
2021/06/16 03:16:18;;;;;;;1.50;0.85;;;;;;;25.86;38.61;100868.09;5075630;28;20541;-72
2021/06/16 03:18:45;;;;;;;2.80;1.00;;;;;;;25.65;39.24;100869.06;5075578;28;20028;-72
2021/06/16 03:21:12;;;;;;;1.10;0.75;;;;;;;25.28;40.05;100864.16;5075488;28;20017;-72
2021/06/16 03:23:40;;;;;;;5.88;1.02;;;;;;;25.55;39.26;100858.75;5075494;28;20078;-72
2021/06/16 03:26:07;;;;;;;1.60;0.80;;;;;;;25.65;39.13;100857.06;5075468;28;20025;-72
2021/06/16 03:28:35;;;;;;;2.10;0.80;;;;;;;25.48;39.54;100863.63;5075423;28;20024;-72
2021/06/16 03:31:02;;;;;;;8.40;0.82;;;;;;;25.37;39.70;100870.06;5075306;28;20029;-72
2021/06/16 03:33:28;;;;;;;2.05;0.80;;;;;;;25.60;38.78;100860.28;5075284;28;20032;-71
2021/06/16 03:35:55;;;;;;;0.80;0.63;;;;;;;25.57;39.26;100859.13;5073988;28;20032;-72
2021/06/16 03:38:21;;;;;;;0.90;0.55;;;;;;;25.51;39.27;100871.97;5074330;28;20035;-72
2021/06/16 03:40:49;;;;;;;0.70;0.70;;;;;;;25.58;38.91;100859.91;5075192;28;20025;-72
2021/06/16 03:43:17;;;;;;;0.88;0.70;;;;;;;25.62;39.03;100866.28;5075171;28;20402;-72
2021/06/16 03:45:44;;;;;;;1.67;0.75;;;;;;;25.52;39.06;100859.56;5075111;28;20052;-72
2021/06/16 03:48:15;;;;;;;2.72;1.42;;;;;;;25.53;39.18;100863.94;5075057;28;20029;-72
2021/06/16 03:50:41;;;;;;;0.95;0.70;;;;;;;25.61;38.71;100859.09;5075039;28;20048;-72
2021/06/16 03:53:11;;;;;;;0.60;0.55;;;;;;;25.67;38.63;100854.63;5074667;28;20125;-72
2021/06/16 03:55:41;;;;;;;2.10;0.82;;;;;;;25.73;38.73;100847.44;5074877;28;20031;-73
2021/06/16 03:58:09;;;;;;;1.08;0.60;;;;;;;25.71;38.85;100847.03;5074914;28;20016;-72
2021/06/16 04:00:37;;;;;;;1.83;0.70;;;;;;;25.78;38.79;100863.78;5074839;28;20032;-72
2021/06/16 04:03:06;;;;;;;1.40;0.73;;;;;;;25.81;38.68;100853.75;5074792;28;20103;-72
2021/06/16 04:05:31;;;;;;;2.00;0.63;;;;;;;25.78;38.57;100857.38;5074754;28;20500;-72
2021/06/16 04:07:58;;;;;;;1.52;0.95;;;;;;;25.81;38.69;100860.13;5074734;28;20038;-72
2021/06/16 04:10:25;;;;;;;1.35;0.90;;;;;;;25.83;38.44;100862.50;5074654;28;20386;-72
2021/06/16 04:12:51;;;;;;;1.27;0.70;;;;;;;25.91;38.22;100862.03;5074538;28;20463;-73
2021/06/16 04:15:17;;;;;;;1.35;0.82;;;;;;;25.92;38.69;100865.63;5074725;28;20051;-73
2021/06/16 04:17:43;;;;;;;6.63;1.60;;;;;;;25.79;39.09;100853.38;5074491;28;20028;-72
2021/06/16 04:20:10;;;;;;;2.13;1.33;;;;;;;25.85;38.88;100866.50;5074429;28;20364;-72
2021/06/16 04:22:36;;;;;;;4.25;1.40;;;;;;;25.79;38.76;100865.38;5073322;28;20028;-72
2021/06/16 04:25:03;;;;;;;2.63;1.10;;;;;;;25.92;38.47;100862.81;5072905;28;20036;-72
2021/06/16 04:27:28;;;;;;;1.83;1.02;;;;;;;25.95;38.56;100865.59;5074193;28;20036;-72
2021/06/16 04:29:54;;;;;;;1.67;1.20;;;;;;;25.77;38.70;100862.19;5072317;28;20028;-72
2021/06/16 04:32:20;;;;;;;3.67;1.45;;;;;;;25.88;38.83;100853.69;5053781;28;20093;-72
2021/06/16 04:34:46;;;;;;;5.57;1.52;;;;;;;25.85;38.93;100855.31;5054029;28;20499;-72
2021/06/16 04:37:12;;;;;;;1.40;1.20;;;;;;;25.64;39.08;100850.69;5054142;28;20032;-73
2021/06/16 04:39:38;;;;;;;3.60;2.13;;;;;;;25.71;38.74;100853.44;5036085;28;20605;-72
2021/06/16 04:42:04;;;;;;;2.35;1.38;;;;;;;25.77;38.89;100853.78;5036093;28;20033;-72
2021/06/16 04:44:30;;;;;;;4.68;1.55;;;;;;;25.77;38.82;100853.78;5036054;28;20121;-72
2021/06/16 04:46:56;;;;;;;5.85;1.70;;;;;;;25.69;38.77;100852.22;5053803;28;20116;-72
2021/06/16 04:49:22;;;;;;;3.00;1.30;;;;;;;25.69;38.65;100861.44;5054077;28;20100;-72
2021/06/16 04:51:48;;;;;;;3.13;1.30;;;;;;;25.72;38.29;100871.03;5053441;28;20102;-72
2021/06/16 04:54:14;;;;;;;4.45;1.70;;;;;;;25.64;38.53;100866.66;5053665;28;20028;-73
2021/06/16 04:56:40;;;;;;;1.45;0.73;;;;;;;25.58;38.82;100868.31;5054032;28;20025;-71
2021/06/16 04:59:06;;;;;;;8.48;1.95;;;;;;;25.63;38.89;100865.09;5053604;28;20025;-72
2021/06/16 05:01:34;;;;;;;6.28;1.88;;;;;;;25.61;38.83;100867.47;5035658;28;20503;-72
2021/06/16 05:04:00;;;;;;;2.92;1.00;;;;;;;25.58;38.79;100866.31;5053845;28;20046;-72
2021/06/16 05:06:25;;;;;;;2.47;1.17;;;;;;;25.48;39.22;100869.22;5035648;28;20265;-72
2021/06/16 05:08:51;;;;;;;1.90;1.30;;;;;;;25.49;39.07;100870.78;5053393;28;20096;-73
2021/06/16 05:11:17;;;;;;;2.78;1.30;;;;;;;25.15;39.32;100883.41;5053597;28;20025;-71
2021/06/16 05:13:42;;;;;;;3.25;1.23;;;;;;;25.28;39.37;100883.72;5035469;28;20027;-72
2021/06/16 05:16:08;;;;;;;7.90;2.00;;;;;;;25.36;39.09;100878.88;5053375;28;20028;-72
2021/06/16 05:18:33;;;;;;;10.50;2.85;;;;;;;25.25;39.13;100873.38;5035431;28;20086;-71
2021/06/16 05:20:59;;;;;;;3.53;1.80;;;;;;;25.22;38.90;100878.97;5053278;28;20029;-72
2021/06/16 05:23:30;;;;;;;13.57;2.42;;;;;;;25.18;38.90;100874.22;5053185;28;20075;-72
2021/06/16 05:25:56;;;;;;;7.90;2.38;;;;;;;25.05;38.81;100878.69;5053225;28;20029;-72
2021/06/16 05:28:22;;;;;;;12.77;5.25;;;;;;;24.77;38.98;100889.97;5035202;28;20033;-72
2021/06/16 05:30:48;;;;;;;15.32;4.13;;;;;;;24.88;38.83;100885.16;5053080;28;20498;-72
2021/06/16 05:33:13;;;;;;;17.50;4.35;;;;;;;24.80;39.01;100891.97;5052905;28;20029;-71
2021/06/16 05:35:39;;;;;;;12.38;3.13;;;;;;;24.87;38.72;100892.72;5052963;28;20150;-73
2021/06/16 05:38:05;;;;;;;10.68;2.97;;;;;;;24.98;38.21;100883.50;5053135;28;20107;-71
2021/06/16 05:40:31;;;;;;;13.13;3.10;;;;;;;25.04;38.21;100884.69;5052818;28;20025;-71
2021/06/16 05:42:57;;;;;;;13.00;3.05;;;;;;;25.14;38.59;100889.41;5052881;28;20040;-72
2021/06/16 05:45:23;;;;;;;10.85;2.75;;;;;;;25.10;38.79;100883.06;5034774;28;20029;-75
2021/06/16 05:47:48;;;;;;;9.48;2.83;;;;;;;25.15;38.42;100874.22;5034740;28;20063;-72
2021/06/16 05:50:14;;;;;;;14.38;2.83;;;;;;;25.18;38.68;100887.41;5053963;28;20032;-72
2021/06/16 05:52:40;;;;;;;8.07;2.85;;;;;;;25.00;39.04;100884.66;5072454;28;20056;-71
2021/06/16 05:55:06;;;;;;;12.43;3.42;;;;;;;25.14;38.43;100884.59;5071157;28;20025;-71
2021/06/16 05:57:32;;;;;;;15.75;4.03;;;;;;;25.15;38.46;100886.19;5072061;28;20177;-71
2021/06/16 05:59:57;;;;;;;17.70;3.90;;;;;;;25.06;38.50;100888.66;5054321;28;20108;-73
2021/06/16 06:02:23;;;;;;;13.88;4.07;;;;;;;25.09;38.32;100889.81;5072118;28;20024;-72
2021/06/16 06:04:49;;;;;;;16.92;4.65;;;;;;;24.87;38.57;100883.56;5072585;28;20024;-71
2021/06/16 06:07:15;;;;;;;16.52;4.68;;;;;;;24.88;38.32;100877.56;5072450;28;20020;-70
2021/06/16 06:09:41;;;;;;;13.77;4.00;;;;;;;24.99;38.09;100883.06;5072553;28;20042;-73
2021/06/16 06:12:07;;;;;;;19.25;4.75;;;;;;;24.88;38.50;100877.56;5072641;28;20107;-71
2021/06/16 06:14:32;;;;;;;18.20;4.13;;;;;;;24.76;38.54;100878.00;5072397;28;20025;-71
2021/06/16 06:16:58;;;;;;;18.08;3.83;;;;;;;24.86;38.30;100885.56;5072391;28;20375;-71
2021/06/16 06:19:23;;;;;;;15.23;4.07;;;;;;;24.84;38.45;100881.56;5072659;28;20032;-71
2021/06/16 06:21:49;;;;;;;18.77;4.97;;;;;;;25.06;38.21;100876.69;5072447;28;20427;-71
2021/06/16 06:24:15;;;;;;;13.68;3.75;;;;;;;25.11;37.96;100873.47;5072485;28;20471;-71
2021/06/16 06:26:40;;;;;;;13.10;3.65;;;;;;;24.95;38.39;100871.13;5071362;28;20090;-71
2021/06/16 06:29:06;;;;;;;14.95;4.18;;;;;;;25.22;37.99;100871.38;5070129;28;20028;-74
2021/06/16 06:31:31;;;;;;;16.05;4.63;;;;;;;25.07;37.95;100873.47;5066199;28;20487;-74
2021/06/16 06:33:57;;;;;;;18.20;4.30;;;;;;;25.13;38.06;100865.44;5053753;28;20029;-74
2021/06/16 06:36:23;;;;;;;18.13;4.93;;;;;;;25.14;37.81;100869.84;5068742;28;20138;-75
2021/06/16 06:38:49;;;;;;;13.45;4.00;;;;;;;25.18;37.74;100857.44;5051334;28;20491;-74
2021/06/16 06:41:15;;;;;;;15.68;4.47;;;;;;;25.06;38.31;100855.09;5070212;28;20044;-75
2021/06/16 06:43:41;;;;;;;17.45;5.40;;;;;;;25.45;37.62;100865.22;5070718;28;20025;-75
2021/06/16 06:46:07;;;;;;;16.40;4.25;;;;;;;25.49;37.62;100870.78;5070795;28;20082;-74
2021/06/16 06:48:33;;;;;;;14.85;4.30;;;;;;;25.54;37.46;100873.13;5070365;28;20395;-74
2021/06/16 06:50:59;;;;;;;17.88;4.85;;;;;;;25.46;37.57;100872.41;5071277;28;20437;-73
2021/06/16 06:53:27;;;;;;;17.25;3.97;;;;;;;25.53;37.41;100871.53;5053707;28;20056;-73
2021/06/16 06:55:53;;;;;;;13.90;3.42;;;;;;;25.44;37.71;100875.59;5071987;28;20048;-74
2021/06/16 06:58:18;;;;;;;21.63;4.72;;;;;;;25.51;37.64;100869.16;5053954;28;20092;-72
2021/06/16 07:00:44;;;;;;;15.50;4.38;;;;;;;25.32;38.12;100873.31;5070215;28;20036;-73
2021/06/16 07:03:09;;;;;;;18.45;4.03;;;;;;;25.50;37.49;100875.19;5071767;28;20055;-71
2021/06/16 07:05:35;;;;;;;18.83;4.97;;;;;;;25.62;37.13;100885.88;5071505;28;20029;-72
2021/06/16 07:08:01;;;;;;;16.17;3.80;;;;;;;25.52;37.57;100892.34;5059840;28;20043;-73
2021/06/16 07:10:26;;;;;;;13.40;4.05;;;;;;;25.59;37.26;100881.09;5037439;28;20532;-72
2021/06/16 07:12:52;;;;;;;16.00;4.43;;;;;;;25.60;37.57;100879.88;5055405;28;20028;-73
2021/06/16 07:15:19;;;;;;;14.25;4.20;;;;;;;25.76;36.95;100868.97;5058677;28;20158;-72
2021/06/16 07:17:44;;;;;;;21.02;5.45;;;;;;;25.71;37.59;100869.41;5057562;28;20025;-72
2021/06/16 07:20:11;;;;;;;18.15;4.47;;;;;;;25.91;36.86;100876.03;5065312;28;20097;-73
2021/06/16 07:22:37;;;;;;;18.48;5.72;;;;;;;25.83;36.93;100879.31;5054878;28;20787;-72
2021/06/16 07:25:04;;;;;;;14.60;3.97;;;;;;;26.00;36.61;100867.97;5074529;28;20035;-73
2021/06/16 07:27:29;;;;;;;19.63;4.68;;;;;;;26.05;36.61;100879.91;5074792;28;20036;-74
2021/06/16 07:29:55;;;;;;;11.15;3.67;;;;;;;26.18;36.49;100883.78;5075177;28;20028;-73
2021/06/16 07:32:21;;;;;;;22.90;5.35;;;;;;;25.90;37.22;100882.84;5074746;28;20036;-73
2021/06/16 07:34:47;;;;;;;16.40;4.95;;;;;;;25.98;37.00;100887.16;5074771;28;20024;-73
2021/06/16 07:37:13;;;;;;;20.30;4.45;;;;;;;25.97;36.88;100879.97;5069648;28;20028;-74
2021/06/16 07:39:39;;;;;;;18.88;4.95;;;;;;;25.97;36.79;100865.19;5075073;28;20459;-73
2021/06/16 07:42:05;;;;;;;18.02;4.93;;;;;;;26.27;36.65;100858.84;5075075;28;20546;-73
2021/06/16 07:44:30;;;;;;;19.30;5.85;;;;;;;26.14;37.00;100874.59;5057036;28;20123;-73
2021/06/16 07:46:56;;;;;;;24.50;6.30;;;;;;;26.25;36.92;100876.09;5075021;28;20103;-75
2021/06/16 07:49:22;;;;;;;40.75;7.45;;;;;;;26.31;36.72;100870.81;5075070;28;20112;-74
2021/06/16 07:51:47;;;;;;;29.45;6.63;;;;;;;26.16;37.17;100869.41;5056466;28;20029;-74
2021/06/16 07:54:13;;;;;;;25.98;5.57;;;;;;;26.15;36.76;100879.81;5064574;28;20031;-74
2021/06/16 07:56:40;;;;;;;25.13;5.78;;;;;;;26.25;36.79;100884.50;5039876;28;20028;-73
2021/06/16 07:59:06;;;;;;;31.70;8.07;;;;;;;26.43;36.21;100873.09;5058215;28;20029;-74
2021/06/16 08:01:32;;;;;;;24.35;6.03;;;;;;;26.44;36.48;100877.47;5057881;28;20025;-74
2021/06/16 08:03:57;;;;;;;28.17;6.95;;;;;;;26.32;36.76;100877.22;5057699;28;20086;-73
2021/06/16 08:06:23;;;;;;;19.52;5.13;;;;;;;26.27;36.70;100879.25;5058197;28;20135;-72
2021/06/16 08:08:49;;;;;;;24.17;6.38;;;;;;;26.34;36.76;100883.19;5056910;28;20025;-72
2021/06/16 08:11:15;;;;;;;24.33;5.50;;;;;;;26.52;36.20;100864.97;5055573;28;20138;-72
2021/06/16 08:13:41;;;;;;;26.40;5.78;;;;;;;26.55;36.09;100869.75;5055664;28;20413;-73
2021/06/16 08:16:06;;;;;;;52.67;11.60;;;;;;;26.48;36.21;100864.25;5056241;28;20040;-72
2021/06/16 08:18:32;;;;;;;33.38;9.27;;;;;;;26.45;36.27;100858.66;5056255;28;20024;-72
2021/06/16 08:20:58;;;;;;;14.52;5.20;;;;;;;26.49;36.31;100848.22;5055651;28;20028;-72
2021/06/16 08:23:24;;;;;;;25.45;5.97;;;;;;;26.63;35.90;100853.66;5055184;28;20196;-72
2021/06/16 08:25:50;;;;;;;21.38;5.53;;;;;;;26.46;35.73;100849.06;5055393;28;20495;-73
2021/06/16 08:28:16;;;;;;;24.38;8.10;;;;;;;26.60;35.41;100857.31;5057232;28;20023;-72
2021/06/16 08:30:41;;;;;;;21.65;5.88;;;;;;;26.63;35.13;100858.47;5056121;28;20027;-72
2021/06/16 08:33:07;;;;;;;34.58;7.05;;;;;;;26.51;35.34;100862.59;5070079;28;20033;-73
2021/06/16 08:35:33;;;;;;;22.40;5.40;;;;;;;26.46;35.16;100872.28;5074032;28;20086;-73
2021/06/16 08:37:58;;;;;;;19.77;5.30;;;;;;;26.53;35.37;100880.59;5074127;28;20020;-73
2021/06/16 08:40:24;;;;;;;34.95;7.93;;;;;;;26.63;35.04;100875.28;5074111;28;20101;-74
2021/06/16 08:42:50;;;;;;;22.48;6.15;;;;;;;26.71;34.90;100883.16;5073630;28;20031;-73
2021/06/16 08:45:18;;;;;;;20.05;4.47;;;;;;;26.89;34.59;100882.91;5054359;28;20028;-73
2021/06/16 08:47:50;;;;;;;19.02;4.95;;;;;;;26.69;34.82;100871.59;5056029;28;20115;-73
2021/06/16 08:50:17;;;;;;;34.92;9.10;;;;;;;26.93;34.68;100866.84;5073870;28;20024;-73
2021/06/16 08:52:46;;;;;;;22.08;5.82;;;;;;;27.09;34.76;100883.88;5060150;28;20057;-73
2021/06/16 08:55:15;;;;;;;23.38;6.00;;;;;;;27.24;34.59;100886.47;5073868;28;20028;-72
2021/06/16 08:57:41;;;;;;;20.70;5.13;;;;;;;27.36;34.34;100894.31;5073671;28;20056;-73
2021/06/16 09:00:09;;;;;;;15.68;5.10;;;;;;;27.38;34.27;100892.66;5073567;28;20094;-73
2021/06/16 09:02:35;;;;;;;13.68;3.75;;;;;;;27.44;34.29;100898.59;5072332;28;20378;-73
2021/06/16 09:05:01;;;;;;;19.30;5.15;;;;;;;27.33;34.46;100892.34;5073515;28;20032;-73
2021/06/16 09:07:38;;;;;;;16.00;4.82;;;;;;;27.18;34.21;100888.16;5073454;28;20016;-73
2021/06/16 09:10:12;;;;;;;18.85;5.50;;;;;;;27.03;34.73;100888.31;5073401;28;20024;-74
2021/06/16 09:12:45;;;;;;;18.05;4.45;;;;;;;27.28;34.20;100884.38;5073297;28;20685;-73
2021/06/16 09:15:20;;;;;;;18.83;5.32;;;;;;;27.30;34.54;100902.41;5071824;28;20048;-73
2021/06/16 09:18:18;;;;;;;14.80;4.78;;;;;;;27.29;34.35;100894.41;5073406;28;20029;-73
2021/06/16 09:20:47;;;;;;;12.57;4.13;;;;;;;27.48;34.05;100890.09;5009054;28;20128;-73
2021/06/16 09:23:20;;;;;;;16.38;4.05;;;;;;;27.26;33.92;100895.25;5053244;28;20036;-74
2021/06/16 09:26:05;;;;;;;14.70;4.45;;;;;;;27.40;33.50;100902.66;5066217;28;20479;-73
2021/06/16 09:28:42;;;;;;;17.27;4.53;;;;;;;27.28;33.84;100901.22;5073088;28;20032;-74
2021/06/16 09:31:09;;;;;;;18.65;4.40;;;;;;;27.39;33.55;100893.44;5073115;28;20035;-73
2021/06/16 09:33:35;;;;;;;11.10;3.80;;;;;;;27.38;33.37;100898.25;5072928;28;20032;-74
2021/06/16 09:36:01;;;;;;;26.27;7.25;;;;;;;27.43;33.16;100890.56;5072346;28;20028;-73
2021/06/16 09:38:32;;;;;;;15.25;4.63;;;;;;;27.45;33.04;100891.75;5072977;28;20471;-73
2021/06/16 09:41:00;;;;;;;25.98;6.43;;;;;;;27.72;32.73;100899.34;5072856;28;20394;-73
2021/06/16 09:43:28;;;;;;;16.48;5.53;;;;;;;27.83;32.59;100895.16;5072602;28;20032;-73
2021/06/16 09:45:56;;;;;;;25.35;5.65;;;;;;;27.80;32.38;100898.00;5071592;28;20028;-73
2021/06/16 09:48:33;;;;;;;26.60;5.75;;;;;;;27.80;32.01;100895.19;5072845;28;20063;-73
2021/06/16 09:51:10;;;;;;;9.65;3.65;;;;;;;27.64;31.62;100895.84;5072783;28;20032;-72
2021/06/16 09:53:52;;;;;;;16.83;3.72;;;;;;;27.42;32.40;100886.19;5072465;28;20048;-72
2021/06/16 09:56:18;;;;;;;9.75;3.88;;;;;;;27.67;31.83;100889.41;5054621;28;20498;-72
2021/06/16 09:58:44;;;;;;;20.80;4.93;;;;;;;27.94;31.43;100883.72;5072118;28;20036;-74
2021/06/16 10:01:09;;;;;;;13.95;4.32;;;;;;;27.87;31.45;100872.63;5072611;28;20462;-71
2021/06/16 10:03:35;;;;;;;10.98;3.55;;;;;;;28.03;31.11;100877.53;5072618;28;20470;-72
2021/06/16 10:06:16;;;;;;;19.60;4.65;;;;;;;28.07;30.78;100879.06;5072575;28;20510;-72
2021/06/16 10:08:50;;;;;;;14.07;3.95;;;;;;;27.99;30.34;100874.81;5072490;28;20031;-72
2021/06/16 10:11:19;;;;;;;16.40;4.68;;;;;;;27.98;30.43;100883.66;5072547;28;20442;-71
2021/06/16 10:13:45;;;;;;;13.68;3.53;;;;;;;27.98;30.68;100883.66;5072055;28;20078;-72
2021/06/16 10:16:12;;;;;;;14.13;4.75;;;;;;;27.98;30.48;100887.28;5071232;28;20186;-73
2021/06/16 10:18:44;;;;;;;19.13;4.57;;;;;;;27.86;30.51;100880.25;5054434;28;20123;-72
2021/06/16 10:21:14;;;;;;;14.90;3.83;;;;;;;27.99;30.36;100890.88;5072539;28;20070;-72
2021/06/16 10:23:39;;;;;;;18.98;4.30;;;;;;;28.05;30.17;100880.72;5054351;28;20081;-72
2021/06/16 10:26:13;;;;;;;7.10;2.80;;;;;;;28.35;29.88;100877.75;5071983;28;20483;-72
2021/06/16 10:28:50;;;;;;;21.40;4.78;;;;;;;28.49;29.89;100879.50;5054253;28;20020;-72
2021/06/16 10:31:17;;;;;;;33.75;6.57;;;;;;;28.46;29.95;100880.34;5072285;28;20375;-71
2021/06/16 10:33:42;;;;;;;13.80;4.43;;;;;;;28.72;29.52;100882.22;5072242;28;20032;-73
2021/06/16 10:36:16;;;;;;;14.48;3.42;;;;;;;28.39;28.83;100888.91;5072053;28;20031;-72
2021/06/16 10:38:56;;;;;;;15.38;4.63;;;;;;;28.38;29.39;100867.66;5072229;28;20020;-72
2021/06/16 10:41:37;;;;;;;13.73;3.95;;;;;;;28.50;29.23;100869.84;5072436;28;20166;-74
2021/06/16 10:44:26;;;;;;;14.77;3.90;;;;;;;28.78;29.38;100862.78;5070585;28;20016;-72
2021/06/16 10:47:08;;;;;;;12.80;3.40;;;;;;;28.99;29.36;100861.56;5073280;28;20032;-74
2021/06/16 10:49:43;;;;;;;17.45;3.65;;;;;;;29.05;29.50;100868.25;5076174;28;20025;-73
2021/06/16 10:52:11;;;;;;;24.42;6.13;;;;;;;29.22;29.27;100869.84;5075896;28;20040;-73
2021/06/16 10:54:37;;;;;;;8.50;2.75;;;;;;;29.13;29.00;100866.84;5076120;28;20047;-73
2021/06/16 10:57:06;;;;;;;11.52;3.10;;;;;;;29.30;28.77;100859.22;5076048;28;20024;-74
2021/06/16 10:59:43;;;;;;;14.07;4.22;;;;;;;29.34;28.74;100867.59;5075963;28;20082;-73
2021/06/16 11:02:24;;;;;;;24.17;5.15;;;;;;;29.43;28.37;100867.75;5075845;28;20497;-74
2021/06/16 11:04:50;;;;;;;32.58;6.13;;;;;;;29.40;28.12;100860.22;5075854;28;20027;-74
2021/06/16 11:07:31;;;;;;;10.68;3.13;;;;;;;29.44;28.56;100858.09;5057567;28;20028;-73
2021/06/16 11:09:59;;;;;;;8.60;2.60;;;;;;;29.28;28.00;100856.84;5075711;28;20024;-74
2021/06/16 11:12:30;;;;;;;7.93;2.53;;;;;;;29.21;28.45;100859.84;5075625;28;20107;-72
2021/06/16 11:15:00;;;;;;;11.90;3.45;;;;;;;29.56;28.04;100858.22;5074104;28;20020;-73
2021/06/16 11:17:35;;;;;;;16.13;3.33;;;;;;;29.50;28.27;100853.53;5057675;28;20479;-73
2021/06/16 11:20:05;;;;;;;12.48;3.17;;;;;;;29.80;28.33;100860.81;5075580;28;20029;-74
2021/06/16 11:22:36;;;;;;;12.07;3.67;;;;;;;30.11;28.28;100866.84;5066608;28;20547;-74
2021/06/16 11:25:25;;;;;;;7.40;2.45;;;;;;;30.12;28.01;100879.69;5059167;28;20514;-74